createdAt,value
2023-04-08T00:00:45.752Z,78.50
2023-04-08T00:03:12.655Z,78.40
2023-04-08T00:05:39.470Z,78.80
2023-04-08T00:08:06.633Z,78.30
2023-04-08T00:10:33.716Z,78.80
2023-04-08T00:13:01.122Z,78.00
2023-04-08T00:15:27.916Z,78.40
2023-04-08T00:17:54.800Z,78.00
2023-04-08T00:20:24.341Z,77.70
2023-04-08T00:22:51.414Z,78.70
2023-04-08T00:25:19.229Z,78.80
2023-04-08T00:27:45.988Z,78.70
2023-04-08T00:30:12.741Z,78.70
2023-04-08T00:32:39.557Z,78.40
2023-04-08T00:35:06.607Z,78.60
2023-04-08T00:37:33.339Z,79.00
2023-04-08T00:40:00.351Z,79.60
2023-04-08T00:42:27.448Z,79.60
2023-04-08T00:44:54.197Z,78.90
2023-04-08T00:47:21.245Z,79.10
2023-04-08T00:49:48.084Z,80.40
2023-04-08T00:52:14.892Z,79.20
2023-04-08T00:54:42.206Z,79.70
2023-04-08T00:57:09.347Z,79.60
2023-04-08T00:59:36.748Z,79.70
2023-04-08T01:02:26.221Z,79.90
2023-04-08T01:05:05.883Z,80.80
2023-04-08T01:07:40.343Z,80.90
2023-04-08T01:10:23.315Z,80.30
2023-04-08T01:13:08.478Z,81.20
2023-04-08T01:15:42.319Z,81.50
2023-04-08T01:18:13.569Z,80.10
2023-04-08T01:20:42.643Z,79.90
2023-04-08T01:23:23.230Z,80.20
2023-04-08T01:25:53.915Z,81.30
2023-04-08T01:28:25.080Z,80.30
2023-04-08T01:30:56.651Z,80.60
2023-04-08T01:33:25.515Z,80.40
2023-04-08T01:35:55.222Z,81.00
2023-04-08T01:38:26.430Z,80.60
2023-04-08T01:40:55.626Z,80.90
2023-04-08T01:43:23.510Z,80.40
2023-04-08T01:45:54.506Z,80.90
2023-04-08T01:48:22.530Z,80.50
2023-04-08T01:50:51.313Z,80.50
2023-04-08T01:53:18.534Z,80.70
2023-04-08T01:55:47.086Z,80.60
2023-04-08T01:58:21.337Z,80.50
2023-04-08T02:00:49.537Z,81.10
2023-04-08T02:03:22.904Z,80.60
2023-04-08T02:05:49.997Z,81.10
2023-04-08T02:10:43.911Z,80.10
2023-04-08T02:13:11.045Z,80.60
2023-04-08T02:15:46.615Z,80.30
2023-04-08T02:18:28.288Z,80.80
2023-04-08T02:21:19.974Z,79.80
2023-04-08T02:23:51.308Z,80.80
2023-04-08T02:26:20.896Z,80.90
2023-04-08T02:28:50.967Z,81.10
2023-04-08T02:31:20.525Z,81.40
2023-04-08T02:33:50.947Z,81.30
2023-04-08T02:36:18.160Z,82.40
2023-04-08T02:38:50.240Z,81.00
2023-04-08T02:41:17.592Z,81.80
2023-04-08T02:43:44.341Z,80.80
2023-04-08T02:46:12.130Z,81.40
2023-04-08T02:48:38.940Z,81.60
2023-04-08T02:51:05.695Z,81.60
2023-04-08T02:53:32.433Z,81.60
2023-04-08T02:55:59.199Z,81.50
2023-04-08T02:58:26.321Z,81.40
2023-04-08T03:00:53.181Z,81.30
2023-04-08T03:03:20.086Z,81.50
2023-04-08T03:05:46.973Z,82.30
2023-04-08T03:08:13.775Z,81.70
2023-04-08T03:10:40.841Z,82.80
2023-04-08T03:13:07.596Z,81.90
2023-04-08T03:15:34.414Z,81.30
2023-04-08T03:18:01.266Z,81.30
2023-04-08T03:20:28.087Z,81.60
2023-04-08T03:22:54.854Z,81.60
2023-04-08T03:25:21.593Z,81.40
2023-04-08T03:27:48.411Z,81.40
2023-04-08T03:30:15.441Z,81.40
2023-04-08T03:32:42.602Z,81.30
2023-04-08T03:35:09.658Z,81.60
2023-04-08T03:37:36.441Z,81.10
2023-04-08T03:40:05.512Z,81.80
2023-04-08T03:42:32.272Z,81.50
2023-04-08T03:44:59.033Z,81.60
2023-04-08T03:47:25.946Z,81.90
2023-04-08T03:49:55.808Z,81.90
2023-04-08T03:52:23.024Z,82.40
2023-04-08T03:54:49.800Z,81.90
2023-04-08T03:57:16.530Z,81.80
2023-04-08T03:59:43.260Z,81.90
2023-04-08T04:02:10.086Z,82.20
2023-04-08T04:04:37.129Z,82.30
2023-04-08T04:07:03.920Z,82.30
2023-04-08T04:09:30.722Z,82.30
2023-04-08T04:11:57.439Z,82.20
2023-04-08T04:14:24.475Z,82.70
2023-04-08T04:16:51.522Z,82.30
2023-04-08T04:19:18.679Z,82.50
2023-04-08T04:21:45.477Z,82.20
2023-04-08T04:26:42.073Z,81.70
2023-04-08T04:29:08.889Z,82.90
2023-04-08T04:31:35.725Z,82.80
2023-04-08T04:34:02.545Z,82.50
2023-04-08T04:36:29.283Z,82.80
2023-04-08T04:38:56.813Z,83.00
2023-04-08T04:41:23.674Z,82.40
2023-04-08T04:43:50.493Z,82.60
2023-04-08T04:46:17.698Z,83.10
2023-04-08T04:48:44.569Z,82.70
2023-04-08T04:51:11.484Z,83.00
2023-04-08T04:53:38.231Z,83.00
2023-04-08T04:56:05.190Z,83.70
2023-04-08T04:58:32.076Z,82.90
2023-04-08T05:00:58.887Z,83.00
2023-04-08T05:03:26.115Z,83.00
2023-04-08T05:05:54.445Z,83.30
2023-04-08T05:08:22.057Z,83.00
2023-04-08T05:10:50.596Z,82.50
2023-04-08T05:13:18.765Z,82.80
2023-04-08T05:15:45.965Z,82.80
2023-04-08T05:18:13.459Z,82.80
2023-04-08T05:20:40.306Z,82.70
2023-04-08T05:23:07.793Z,82.80
2023-04-08T05:25:34.690Z,82.70
2023-04-08T05:28:01.508Z,82.70
2023-04-08T05:30:28.335Z,82.50
2023-04-08T05:32:55.787Z,82.60
2023-04-08T05:35:23.506Z,83.00
2023-04-08T05:37:50.273Z,82.70
2023-04-08T05:40:17.098Z,82.80
2023-04-08T05:42:43.882Z,82.20
2023-04-08T05:45:11.274Z,82.90
2023-04-08T05:47:38.421Z,82.70
2023-04-08T05:50:06.115Z,82.70
2023-04-08T05:52:33.564Z,82.80
2023-04-08T05:55:00.704Z,82.50
2023-04-08T05:57:27.457Z,82.70
2023-04-08T05:59:54.233Z,82.50
2023-04-08T06:02:21.253Z,82.50
2023-04-08T06:07:16.423Z,81.90
2023-04-08T06:09:45.226Z,82.60
2023-04-08T06:12:12.229Z,82.50
2023-04-08T06:14:39.160Z,82.10
2023-04-08T06:17:06.295Z,82.00
2023-04-08T06:19:33.087Z,82.10
2023-04-08T06:21:59.874Z,82.60
2023-04-08T06:24:27.772Z,82.50
2023-04-08T06:26:54.616Z,81.50
2023-04-08T06:29:23.116Z,82.40
2023-04-08T06:31:51.233Z,82.60
2023-04-08T06:34:18.163Z,82.40
2023-04-08T06:36:45.002Z,82.50
2023-04-08T06:39:11.812Z,81.90
2023-04-08T06:41:38.689Z,82.40
2023-04-08T06:44:05.484Z,82.40
2023-04-08T06:46:32.205Z,81.60
2023-04-08T06:48:59.024Z,82.00
2023-04-08T06:51:25.816Z,81.80
2023-04-08T06:53:52.531Z,81.90
2023-04-08T06:56:21.312Z,81.70
2023-04-08T06:58:49.362Z,81.70
2023-04-08T07:01:16.624Z,81.40
2023-04-08T07:03:43.952Z,81.60
2023-04-08T07:06:11.045Z,81.60
2023-04-08T07:08:38.718Z,81.40
2023-04-08T07:11:05.783Z,81.90
2023-04-08T07:13:32.637Z,81.10
2023-04-08T07:15:59.740Z,81.30
2023-04-08T07:18:26.550Z,81.00
2023-04-08T07:20:54.112Z,80.90
2023-04-08T07:23:21.349Z,81.00
2023-04-08T07:25:48.396Z,81.10
2023-04-08T07:28:15.780Z,81.00
2023-04-08T07:30:42.621Z,80.90
2023-04-08T07:33:09.940Z,80.60
2023-04-08T07:35:36.794Z,80.70
2023-04-08T07:38:04.252Z,80.50
2023-04-08T07:40:31.284Z,79.90
2023-04-08T07:45:25.211Z,80.10
2023-04-08T07:47:52.027Z,80.50
2023-04-08T07:50:18.932Z,80.60
2023-04-08T07:52:45.715Z,80.40
2023-04-08T07:55:12.480Z,80.30
2023-04-08T07:57:39.300Z,80.30
2023-04-08T08:00:07.439Z,80.10
2023-04-08T08:02:34.668Z,79.70
2023-04-08T08:05:03.983Z,79.60
2023-04-08T08:07:30.908Z,79.30
2023-04-08T08:09:57.679Z,78.90
2023-04-08T08:12:24.447Z,78.70
2023-04-08T08:14:51.700Z,78.40
2023-04-08T08:17:18.561Z,78.20
2023-04-08T08:19:45.426Z,78.10
2023-04-08T08:22:12.446Z,78.10
2023-04-08T08:24:39.387Z,78.00
2023-04-08T08:27:06.529Z,78.00
2023-04-08T08:29:33.556Z,77.70
2023-04-08T08:32:00.396Z,77.40
2023-04-08T08:34:27.193Z,77.40
2023-04-08T08:36:53.970Z,77.20
2023-04-08T08:39:20.839Z,77.20
2023-04-08T08:41:47.679Z,77.20
2023-04-08T08:44:14.785Z,77.20
2023-04-08T08:46:46.918Z,77.20
2023-04-08T08:49:13.887Z,77.20
2023-04-08T08:51:41.962Z,77.20
2023-04-08T08:54:08.936Z,77.30
2023-04-08T08:56:35.806Z,77.10
2023-04-08T08:59:02.693Z,76.90
2023-04-08T09:01:43.814Z,76.60
2023-04-08T09:04:22.818Z,76.20
2023-04-08T09:07:09.386Z,75.90
2023-04-08T09:09:53.641Z,75.50
2023-04-08T09:12:20.819Z,75.40
2023-04-08T09:14:48.318Z,75.20
2023-04-08T09:17:15.970Z,75.20
2023-04-08T09:20:12.290Z,75.30
2023-04-08T09:23:02.001Z,75.00
2023-04-08T09:25:34.775Z,75.00
2023-04-08T09:28:02.882Z,74.60
2023-04-08T09:30:32.289Z,74.40
2023-04-08T09:32:59.238Z,74.50
2023-04-08T09:35:26.155Z,74.20
2023-04-08T09:37:53.064Z,74.60
2023-04-08T09:40:19.810Z,74.50
2023-04-08T09:42:50.577Z,74.60
2023-04-08T09:45:18.588Z,74.90
2023-04-08T09:47:58.317Z,75.00
2023-04-08T09:50:36.401Z,74.30
2023-04-08T09:53:18.774Z,74.90
2023-04-08T09:55:55.363Z,74.10
2023-04-08T09:58:29.559Z,74.90
2023-04-08T10:00:56.866Z,74.70
2023-04-08T10:03:34.071Z,74.60
2023-04-08T10:06:03.735Z,74.00
2023-04-08T10:08:33.034Z,73.90
2023-04-08T10:11:00.398Z,73.60
2023-04-08T10:13:28.629Z,73.30
2023-04-08T10:16:22.080Z,73.10
2023-04-08T10:18:55.687Z,72.00
2023-04-08T10:21:32.427Z,72.00
2023-04-08T10:24:05.920Z,70.90
2023-04-08T10:26:35.966Z,71.00
2023-04-08T10:29:17.912Z,70.30
2023-04-08T10:31:46.953Z,69.80
2023-04-08T10:34:27.386Z,70.00
2023-04-08T10:36:56.846Z,69.70
2023-04-08T10:39:26.034Z,69.60
2023-04-08T10:41:52.961Z,69.20
2023-04-08T10:44:22.707Z,68.80
2023-04-08T10:46:52.025Z,68.80
2023-04-08T10:49:19.871Z,69.20
2023-04-08T10:51:47.245Z,68.00
2023-04-08T10:54:16.867Z,68.20
2023-04-08T10:56:49.844Z,67.20
2023-04-08T10:59:27.846Z,67.60
2023-04-08T11:01:55.471Z,67.40
2023-04-08T11:04:23.626Z,67.30
2023-04-08T11:06:51.744Z,66.70
2023-04-08T11:09:18.657Z,66.70
2023-04-08T11:11:47.360Z,66.40
2023-04-08T11:14:14.706Z,66.10
2023-04-08T11:16:41.785Z,65.40
2023-04-08T11:19:08.925Z,66.30
2023-04-08T11:21:37.724Z,66.60
2023-04-08T11:24:14.399Z,66.30
2023-04-08T11:26:42.113Z,65.90
2023-04-08T11:29:15.176Z,65.70
2023-04-08T11:31:44.144Z,65.00
2023-04-08T11:34:11.134Z,65.10
2023-04-08T11:36:41.632Z,65.20
2023-04-08T11:39:11.613Z,64.30
2023-04-08T11:41:40.530Z,65.20
2023-04-08T11:44:07.948Z,65.00
2023-04-08T11:46:37.950Z,64.50
2023-04-08T11:49:08.349Z,64.30
2023-04-08T11:54:32.788Z,62.90
2023-04-08T11:57:01.059Z,63.00
2023-04-08T11:59:29.512Z,63.20
2023-04-08T12:01:56.889Z,62.90
2023-04-08T12:04:23.752Z,62.50
2023-04-08T12:06:50.798Z,62.40
2023-04-08T12:09:17.617Z,62.10
2023-04-08T12:11:44.438Z,62.10
2023-04-08T12:14:11.216Z,62.00
2023-04-08T12:16:38.119Z,62.10
2023-04-08T12:19:05.040Z,61.40
2023-04-08T12:21:32.463Z,61.40
2023-04-08T12:23:59.862Z,61.40
2023-04-08T12:26:27.229Z,61.30
2023-04-08T12:28:53.963Z,61.10
2023-04-08T12:31:21.554Z,61.20
2023-04-08T12:33:48.603Z,60.70
2023-04-08T12:36:15.500Z,60.90
2023-04-08T12:38:42.718Z,60.70
2023-04-08T12:41:09.483Z,60.10
2023-04-08T12:43:36.501Z,60.10
2023-04-08T12:46:03.251Z,60.00
2023-04-08T12:48:30.098Z,59.80
2023-04-08T12:50:56.863Z,59.20
2023-04-08T12:53:23.649Z,59.20
2023-04-08T12:55:51.760Z,59.00
2023-04-08T12:58:19.099Z,58.40
2023-04-08T13:00:47.114Z,58.20
2023-04-08T13:05:44.730Z,57.20
2023-04-08T13:08:14.371Z,58.20
2023-04-08T13:10:42.271Z,58.10
2023-04-08T13:13:09.095Z,58.00
2023-04-08T13:15:35.877Z,57.90
2023-04-08T13:18:02.643Z,57.90
2023-04-08T13:20:29.462Z,57.80
2023-04-08T13:22:56.228Z,57.20
2023-04-08T13:25:23.059Z,57.40
2023-04-08T13:27:49.850Z,57.30
2023-04-08T13:30:17.418Z,58.00
2023-04-08T13:32:44.318Z,57.50
2023-04-08T13:35:11.413Z,57.30
2023-04-08T13:37:38.359Z,57.20
2023-04-08T13:40:06.318Z,57.50
2023-04-08T13:42:33.099Z,57.60
2023-04-08T13:45:00.294Z,57.40
2023-04-08T13:47:27.586Z,57.40
2023-04-08T13:49:54.457Z,57.20
2023-04-08T13:54:48.782Z,56.40
2023-04-08T13:57:15.600Z,57.10
2023-04-08T13:59:44.435Z,57.00
2023-04-08T14:02:11.705Z,57.00
2023-04-08T14:04:39.912Z,57.00
2023-04-08T14:07:07.197Z,57.10
2023-04-08T14:09:33.987Z,56.80
2023-04-08T14:12:00.765Z,57.10
2023-04-08T14:14:27.507Z,56.90
2023-04-08T14:16:54.382Z,56.90
2023-04-08T14:19:21.284Z,57.00
2023-04-08T14:21:48.192Z,57.40
2023-04-08T14:24:15.526Z,57.10
2023-04-08T14:26:42.392Z,56.80
2023-04-08T14:29:09.714Z,56.80
2023-04-08T14:31:36.600Z,56.80
2023-04-08T14:34:03.961Z,56.50
2023-04-08T14:36:32.353Z,56.30
2023-04-08T14:38:59.132Z,55.80
2023-04-08T14:41:27.129Z,55.80
2023-04-08T14:43:54.403Z,56.30
2023-04-08T14:46:21.784Z,55.80
2023-04-08T14:48:49.078Z,54.90
2023-04-08T14:51:16.060Z,56.20
2023-04-08T14:53:42.841Z,55.90
2023-04-08T14:56:10.022Z,55.50
2023-04-08T14:58:37.321Z,55.60
2023-04-08T15:01:04.628Z,55.30
2023-04-08T15:03:31.499Z,55.30
2023-04-08T15:05:59.702Z,55.30
2023-04-08T15:08:26.538Z,55.20
2023-04-08T15:13:20.788Z,54.70
2023-04-08T15:15:47.605Z,55.00
2023-04-08T15:18:14.419Z,55.10
2023-04-08T15:20:41.847Z,55.00
2023-04-08T15:23:08.800Z,54.00
2023-04-08T15:25:35.556Z,54.50
2023-04-08T15:28:02.719Z,54.30
2023-04-08T15:30:35.005Z,54.10
2023-04-08T15:33:05.842Z,54.10
2023-04-08T15:35:33.500Z,54.20
2023-04-08T15:38:00.796Z,54.30
2023-04-08T15:40:28.409Z,54.20
2023-04-08T15:42:55.967Z,54.10
2023-04-08T15:45:23.014Z,54.40
2023-04-08T15:47:49.813Z,53.90
2023-04-08T15:50:17.393Z,54.40
2023-04-08T15:52:44.960Z,54.30
2023-04-08T15:55:11.930Z,54.30
2023-04-08T15:57:38.958Z,54.40
2023-04-08T16:00:12.671Z,54.30
2023-04-08T16:02:40.444Z,54.20
2023-04-08T16:05:07.871Z,54.50
2023-04-08T16:07:34.702Z,54.30
2023-04-08T16:10:01.657Z,54.10
2023-04-08T16:12:28.857Z,54.20
2023-04-08T16:14:55.651Z,54.30
2023-04-08T16:17:23.158Z,53.90
2023-04-08T16:19:51.874Z,54.00
2023-04-08T16:22:19.371Z,54.00
2023-04-08T16:24:46.510Z,53.80
2023-04-08T16:27:13.262Z,53.70
2023-04-08T16:29:40.856Z,53.70
2023-04-08T16:32:08.812Z,53.50
2023-04-08T16:34:36.060Z,53.60
2023-04-08T16:37:03.018Z,53.40
2023-04-08T16:39:29.836Z,53.40
2023-04-08T16:41:56.572Z,53.40
2023-04-08T16:44:24.838Z,53.50
2023-04-08T16:46:51.921Z,53.70
2023-04-08T16:49:18.948Z,53.80
2023-04-08T16:51:45.787Z,53.90
2023-04-08T16:54:12.671Z,54.00
2023-04-08T16:56:44.207Z,53.80
2023-04-08T16:59:14.756Z,53.90
2023-04-08T17:01:41.535Z,53.80
2023-04-08T17:04:08.438Z,53.90
2023-04-08T17:06:36.248Z,53.90
2023-04-08T17:09:04.101Z,53.60
2023-04-08T17:11:31.239Z,54.00
2023-04-08T17:13:58.106Z,54.20
2023-04-08T17:16:25.001Z,54.30
2023-04-08T17:18:51.970Z,54.50
2023-04-08T17:21:20.010Z,54.50
2023-04-08T17:23:46.741Z,54.50
2023-04-08T17:26:13.466Z,54.70
2023-04-08T17:28:40.330Z,55.00
2023-04-08T17:31:07.355Z,55.20
2023-04-08T17:33:34.147Z,55.40
2023-04-08T17:36:01.517Z,55.70
2023-04-08T17:38:28.422Z,55.90
2023-04-08T17:40:55.160Z,56.00
2023-04-08T17:43:22.056Z,56.10
2023-04-08T17:45:50.132Z,56.10
2023-04-08T17:48:17.451Z,56.20
2023-04-08T17:50:44.913Z,56.20
2023-04-08T17:53:11.673Z,56.40
2023-04-08T17:55:38.432Z,56.50
2023-04-08T17:58:05.266Z,56.70
2023-04-08T18:00:32.023Z,56.70
2023-04-08T18:02:58.889Z,56.30
2023-04-08T18:05:27.246Z,57.00
2023-04-08T18:07:54.096Z,56.80
2023-04-08T18:12:50.811Z,56.70
2023-04-08T18:15:21.842Z,57.40
2023-04-08T18:20:16.107Z,57.10
2023-04-08T18:22:43.011Z,57.80
2023-04-08T18:25:10.054Z,57.40
2023-04-08T18:27:36.993Z,58.00
2023-04-08T18:30:04.075Z,58.10
2023-04-08T18:32:30.836Z,58.20
2023-04-08T18:34:57.600Z,58.30
2023-04-08T18:37:24.351Z,58.40
2023-04-08T18:39:51.624Z,58.50
2023-04-08T18:42:18.422Z,58.60
2023-04-08T18:44:45.233Z,58.50
2023-04-08T18:47:12.004Z,59.10
2023-04-08T18:49:38.819Z,58.20
2023-04-08T18:52:06.699Z,58.70
2023-04-08T18:54:33.474Z,58.80
2023-04-08T18:57:01.087Z,58.80
2023-04-08T18:59:28.522Z,58.70
2023-04-08T19:01:55.849Z,58.70
2023-04-08T19:04:23.479Z,58.60
2023-04-08T19:06:50.589Z,58.60
2023-04-08T19:09:17.316Z,58.60
2023-04-08T19:11:44.068Z,58.50
2023-04-08T19:14:10.903Z,58.30
2023-04-08T19:16:40.047Z,58.30
2023-04-08T19:19:08.397Z,58.30
2023-04-08T19:21:37.678Z,58.30
2023-04-08T19:24:06.331Z,58.40
2023-04-08T19:26:33.854Z,58.40
2023-04-08T19:29:01.058Z,58.50
2023-04-08T19:31:28.278Z,58.60
2023-04-08T19:33:55.284Z,58.80
2023-04-08T19:36:22.109Z,58.60
2023-04-08T19:38:48.911Z,58.50
2023-04-08T19:41:15.797Z,58.40
2023-04-08T19:43:42.569Z,58.40
2023-04-08T19:46:09.377Z,58.40
2023-04-08T19:48:36.248Z,57.90
2023-04-08T19:51:03.688Z,58.50
2023-04-08T19:53:30.794Z,58.40
2023-04-08T19:56:01.929Z,58.40
2023-04-08T19:58:28.936Z,58.40
2023-04-08T20:00:55.806Z,58.40
2023-04-08T20:03:24.023Z,58.40
2023-04-08T20:05:51.117Z,58.30
2023-04-08T20:08:17.859Z,58.30
2023-04-08T20:10:44.675Z,58.30
2023-04-08T20:15:38.961Z,57.70
2023-04-08T20:18:06.315Z,58.40
2023-04-08T20:20:33.077Z,58.40
2023-04-08T20:22:59.845Z,58.50
2023-04-08T20:25:26.640Z,58.50
2023-04-08T20:27:53.422Z,58.50
2023-04-08T20:30:20.207Z,58.60
2023-04-08T20:32:46.997Z,58.50
2023-04-08T20:35:13.796Z,58.50
2023-04-08T20:37:40.592Z,58.40
2023-04-08T20:40:08.283Z,58.40
2023-04-08T20:42:35.068Z,58.40
2023-04-08T20:45:02.382Z,58.50
2023-04-08T20:47:29.180Z,58.20
2023-04-08T20:49:55.981Z,58.60
2023-04-08T20:52:22.741Z,58.70
2023-04-08T20:57:17.895Z,58.30
2023-04-08T20:59:44.910Z,58.80
2023-04-08T21:02:11.819Z,58.80
2023-04-08T21:04:38.576Z,58.90
2023-04-08T21:07:05.355Z,58.90
2023-04-08T21:09:33.322Z,59.00
2023-04-08T21:12:01.267Z,59.00
2023-04-08T21:14:30.879Z,59.10
2023-04-08T21:16:58.387Z,59.20
2023-04-08T21:19:25.307Z,59.30
2023-04-08T21:21:52.045Z,59.80
2023-04-08T21:24:18.800Z,59.30
2023-04-08T21:26:45.571Z,59.40
2023-04-08T21:29:12.758Z,59.40
2023-04-08T21:31:41.195Z,59.40
2023-04-08T21:34:08.265Z,59.40
2023-04-08T21:36:34.999Z,59.50
2023-04-08T21:39:02.335Z,59.40
2023-04-08T21:41:30.565Z,59.10
2023-04-08T21:43:57.568Z,59.50
2023-04-08T21:46:24.457Z,59.50
2023-04-08T21:48:51.452Z,59.20
2023-04-08T21:51:18.537Z,59.60
2023-04-08T21:56:13.940Z,59.20
2023-04-08T21:58:40.766Z,59.80
2023-04-08T22:01:07.585Z,59.70
2023-04-08T22:03:34.651Z,59.80
2023-04-08T22:06:01.558Z,59.80
2023-04-08T22:08:28.478Z,59.90
2023-04-08T22:10:55.263Z,59.90
2023-04-08T22:13:22.033Z,60.00
2023-04-08T22:15:50.228Z,59.90
2023-04-08T22:18:17.009Z,60.00
2023-04-08T22:20:43.723Z,60.10
2023-04-08T22:23:10.504Z,60.10
2023-04-08T22:25:37.265Z,59.70
2023-04-08T22:28:04.003Z,60.30
2023-04-08T22:30:30.993Z,60.30
2023-04-08T22:32:57.855Z,60.40
2023-04-08T22:35:24.601Z,60.50
2023-04-08T22:37:51.424Z,60.50
2023-04-08T22:40:18.453Z,60.50
2023-04-08T22:42:45.580Z,60.50
2023-04-08T22:45:12.335Z,60.50
2023-04-08T22:47:39.112Z,60.30
2023-04-08T22:50:06.737Z,60.70
2023-04-08T22:52:33.489Z,60.80
2023-04-08T22:55:00.331Z,60.90
2023-04-08T22:57:27.098Z,60.90
2023-04-08T22:59:53.899Z,61.00
2023-04-08T23:02:20.791Z,61.00
2023-04-08T23:04:47.625Z,61.00
2023-04-08T23:07:14.371Z,61.20
2023-04-08T23:09:41.146Z,61.20
2023-04-08T23:12:07.881Z,61.20
2023-04-08T23:14:34.715Z,61.30
2023-04-08T23:17:03.086Z,61.40
2023-04-08T23:19:31.835Z,61.40
2023-04-08T23:21:59.261Z,61.50
2023-04-08T23:24:26.172Z,61.60
2023-04-08T23:26:52.976Z,61.60
2023-04-08T23:29:19.782Z,61.80
2023-04-08T23:31:46.496Z,61.80
2023-04-08T23:34:13.545Z,61.90
2023-04-08T23:36:40.361Z,61.90
2023-04-08T23:39:07.162Z,62.10
2023-04-08T23:41:34.124Z,62.20
2023-04-08T23:44:00.900Z,61.60
2023-04-08T23:46:27.784Z,62.30
2023-04-08T23:48:54.774Z,62.30
2023-04-08T23:51:21.564Z,62.40
2023-04-08T23:53:48.427Z,62.40
2023-04-08T23:56:15.309Z,62.50
2023-04-08T23:58:42.096Z,62.60
